Pamo Valley (237) Station Data

Red Flag Warning: No
Fire Weather Zone: 250
SDGE Region: Ramona
Lat/Lon: 33.143/-116.848

Observations

Time Wind Speed/Gust Temp(F) RH Fuel Moist Fuel Temp(F) Dewpt(F) Tmax(F) Tmin(F) Accum Precip 10-min Precip SL Press(mb)
5/24 8:30am 337 3 G 4 74° 21% - - 32° 74.4° 62° - - -
5/24 8:20am 157 3 G 6 61° 83% - - 56° 62.9° 50.9° - - -
5/24 8:10am 216 3 G 5 59° 90% - - 57° 61.2° 50.9° - - -
5/24 8:00am 256 2 G 7 58° 95% - - 56° 61.2° 50.9° - - -
5/24 7:50am 341 6 G 11 57° 96% - - 56° 61.2° 50.9° - - -
5/24 7:40am 201 2 G 5 57° 96% - - 56° 61.2° 50.9° - - -
5/24 7:30am 164 4 G 8 57° 97% - - 56° 61.2° 50.9° - - -
5/24 7:20am 147 7 G 12 56° 97% - - 55° 61.2° 50.9° - - -
5/24 7:10am 156 6 G 11 56° 97% - - 55° 61.2° 50.9° - - -
5/24 7:00am 165 4 G 8 56° 97% - - 55° 61.2° 50.9° - - -
5/24 6:50am 159 8 G 13 54° 97% - - 53° 61.2° 50.9° - - -
5/24 6:40am 193 7 G 9 52° 97% - - 51° 61.2° 50.9° - - -
5/24 6:30am 197 2 G 6 52° 97% - - 51° 61.2° 50.9° - - -
5/24 6:20am 11 1 G 4 51° 97% - - 50° 61.2° 50.9° - - -
5/24 6:10am 16 3 G 4 51° 96% - - 50° 61.2° 50.9° - - -
5/24 6:00am 298 1 G 3 52° 96% - - 51° 61.2° 51.3° - - -
5/24 5:50am 265 1 G 3 52° 96% - - 51° 61.2° 51.4° - - -
5/24 5:40am 222 1 G 2 52° 96% - - 51° 61.2° 51.4° - - -
5/24 5:30am 208 1 G 3 52° 96% - - 51° 61.2° 51.7° - - -
5/24 5:20am 79 2 G 3 52° 96% - - 51° 61.2° 51.7° - - -
5/24 5:10am 350 1 G 3 53° 96% - - 51° 61.2° 52.1° - - -
5/24 5:00am 29 1 G 3 53° 96% - - 52° 61.2° 52.5° - - -
5/24 4:50am 211 1 G 2 53° 95% - - 52° 61.2° 52.5° - - -
5/24 4:40am 209 1 G 3 53° 95% - - 52° 61.2° 52.5° - - -
5/24 4:30am 225 0 G 2 53° 95% - - 51° 61.2° 52.5° - - -
5/24 4:20am 202 3 G 4 54° 94% - - 52° 61.2° 52.5° - - -
5/24 4:10am 204 1 G 3 53° 94% - - 52° 61.2° 52.5° - - -
5/24 4:00am 358 2 G 3 53° 94% - - 52° 61.2° 52.5° - - -
5/24 3:50am 355 1 G 2 54° 93% - - 52° 61.2° 53.2° - - -
5/24 3:40am 189 1 G 3 54° 93% - - 52° 61.2° 53.5° - - -
5/24 3:30am 158 0 G 1 54° 93% - - 52° 61.2° 53.7° - - -
5/24 3:20am 198 1 G 2 54° 93% - - 52° 61.2° 53.7° - - -
5/24 3:10am 49 1 G 2 54° 92% - - 52° 61.2° 53.7° - - -
5/24 3:00am 0 1 G 3 54° 92% - - 52° 61.2° 54.1° - - -
5/24 2:50am 171 2 G 3 55° 92% - - 53° 61.2° 54.3° - - -
5/24 2:40am 228 2 G 4 56° 91% - - 53° 61.2° 54.3° - - -
5/24 2:30am 201 0 G 1 56° 91% - - 53° 61.2° 55.2° - - -
5/24 2:20am 353 0 G 1 56° 91% - - 53° 61.2° 55.3° - - -
5/24 2:10am 59 0 G 1 56° 91% - - 54° 61.2° 55.5° - - -
5/24 2:00am 39 2 G 2 56° 91% - - 53° 61.2° 55.5° - - -
5/24 1:50am 25 1 G 2 56° 89% - - 53° 61.2° 55.7° - - -
5/24 1:40am 317 0 G 2 57° 88% - - 54° 61.2° 56.5° - - -
5/24 1:30am 52 1 G 2 58° 88% - - 54° 61.2° 57° - - -
5/24 1:20am 100 1 G 1 58° 87% - - 54° 61.2° 57° - - -
5/24 1:10am 39 1 G 2 58° 87% - - 55° 61.2° 57.6° - - -
5/24 1:00am 148 0 G 1 58° 87% - - 55° 61.2° 57.7° - - -
5/24 12:50am 4 0 G 1 59° 87% - - 55° 61.2° 57.7° - - -
5/24 12:40am 15 1 G 2 58° 88% - - 55° 61.2° 57.7° - - -
5/24 12:30am 31 1 G 2 58° 88% - - 55° 61.2° 57.7° - - -
5/24 12:20am 222 1 G 2 59° 85% - - 55° 61.2° 58.2° - - -
5/24 12:10am 173 1 G 2 61° 83% - - 55° 61.2° 59.6° - - -
5/24 12:00am 194 2 G 2 60° 84% - - 55° 93.8° 51.1° - - -
5/23 11:50pm 227 1 G 2 61° 82% - - 55° 93.8° 51.1° - - -
5/23 11:40pm 57 1 G 2 62° 80% - - 56° 93.8° 51.1° - - -
5/23 11:30pm 64 2 G 3 61° 82% - - 56° 93.8° 51.1° - - -
5/23 11:20pm 350 1 G 2 61° 81% - - 56° 93.8° 51.1° - - -
5/23 11:10pm 42 2 G 2 62° 80% - - 56° 93.8° 51.1° - - -
5/23 11:00pm 8 0 G 1 62° 78% - - 56° 93.8° 51.1° - - -
5/23 10:50pm 194 0 G 2 63° 76% - - 56° 93.8° 51.1° - - -
5/23 10:40pm 198 2 G 3 64° 75% - - 56° 93.8° 51.1° - - -
5/23 10:30pm 209 2 G 3 64° 75% - - 56° 93.8° 51.1° - - -
5/23 10:20pm 30 1 G 2 65° 72% - - 56° 93.8° 51.1° - - -
5/23 10:10pm 57 2 G 3 65° 74% - - 56° 93.8° 51.1° - - -
5/23 10:00pm 1 1 G 1 65° 72% - - 56° 93.8° 51.1° - - -
5/23 9:50pm 33 0 G 1 66° 71% - - 56° 93.8° 51.1° - - -
5/23 9:40pm 235 0 G 1 66° 69% - - 56° 93.8° 51.1° - - -
5/23 9:30pm 185 1 G 2 67° 68% - - 56° 93.8° 51.1° - - -
5/23 9:20pm 61 2 G 2 67° 69% - - 56° 93.8° 51.1° - - -
5/23 9:10pm 301 1 G 2 68° 68% - - 57° 93.8° 51.1° - - -
5/23 9:00pm 14 1 G 2 69° 65% - - 56° 93.8° 51.1° - - -
5/23 8:50pm 195 1 G 2 70° 61% - - 56° 93.8° 51.1° - - -
5/23 8:40pm 90 0 G 1 70° 61% - - 56° 93.8° 51.1° - - -
5/23 8:30pm 212 1 G 2 71° 60% - - 56° 93.8° 51.1° - - -
5/23 8:20pm 212 3 G 5 72° 57% - - 56° 93.8° 51.1° - - -
5/23 8:10pm 160 4 G 6 74° 52% - - 55° 93.8° 51.1° - - -
5/23 8:00pm 147 5 G 8 74° 53% - - 56° 93.8° 51.1° - - -
5/23 7:50pm 145 5 G 7 74° 53% - - 56° 93.8° 51.1° - - -
5/23 7:40pm 149 6 G 10 75° 52% - - 56° 93.8° 51.1° - - -
5/23 7:30pm 157 6 G 10 76° 50% - - 56° 93.8° 51.1° - - -
5/23 7:20pm 151 6 G 12 77° 49% - - 57° 93.8° 51.1° - - -
5/23 7:10pm 150 6 G 11 78° 48% - - 57° 93.8° 51.1° - - -
5/23 7:00pm 165 5 G 11 80° 46% - - 57° 93.8° 51.1° - - -
5/23 6:50pm 162 6 G 13 81° 43% - - 56° 93.8° 51.1° - - -
5/23 6:40pm 164 6 G 12 83° 39% - - 56° 93.8° 51.1° - - -
5/23 6:30pm 162 6 G 12 84° 38% - - 56° 93.8° 51.1° - - -
5/23 6:20pm 153 7 G 12 85° 36% - - 56° 93.8° 51.1° - - -
5/23 6:10pm 166 6 G 12 86° 36% - - 56° 93.8° 51.1° - - -
5/23 6:00pm 185 9 G 13 86° 36% - - 56° 93.8° 51.1° - - -
5/23 5:50pm 184 7 G 11 87° 36% - - 57° 93.8° 51.1° - - -
5/23 5:40pm 178 6 G 9 87° 37% - - 57° 93.8° 51.1° - - -
5/23 5:30pm 190 7 G 11 86° 38% - - 58° 93.8° 51.1° - - -
5/23 5:20pm 193 7 G 10 87° 37% - - 58° 93.8° 51.1° - - -
5/23 5:10pm 196 5 G 9 87° 37% - - 58° 93.8° 51.1° - - -
5/23 5:00pm 196 8 G 11 86° 38% - - 58° 93.8° 51.1° - - -
5/23 4:50pm 194 7 G 12 87° 38% - - 58° 93.8° 51.1° - - -
5/23 4:40pm 182 6 G 10 87° 38% - - 58° 93.8° 51.1° - - -
5/23 4:30pm 182 6 G 11 86° 39% - - 58° 93.8° 51.1° - - -
5/23 4:20pm 172 6 G 10 86° 40% - - 59° 93.8° 51.1° - - -
5/23 4:10pm 178 7 G 12 85° 42% - - 59° 93.8° 51.1° - - -
5/23 4:00pm 184 10 G 14 84° 42% - - 59° 93.8° 51.1° - - -
5/23 3:50pm 190 11 G 14 84° 43% - - 59° 93.8° 51.1° - - -
5/23 3:40pm 186 10 G 14 84° 43% - - 60° 93.8° 51.1° - - -
5/23 3:30pm 182 9 G 15 84° 45% - - 60° 93.8° 51.1° - - -
5/23 3:20pm 176 9 G 14 83° 45% - - 60° 93.8° 51.1° - - -
5/23 3:10pm 159 8 G 13 84° 45% - - 60° 93.8° 51.1° - - -
5/23 3:00pm 149 8 G 14 83° 47% - - 60° 93.8° 51.1° - - -
5/23 2:50pm 164 7 G 12 83° 47% - - 60° 93.8° 51.1° - - -
5/23 2:40pm 165 8 G 14 83° 47% - - 60° 93.8° 51.1° - - -
5/23 2:30pm 159 7 G 12 84° 45% - - 61° 93.8° 51.1° - - -
5/23 2:20pm 174 9 G 15 84° 45% - - 60° 93.8° 51.1° - - -
5/23 2:10pm 180 9 G 15 84° 45% - - 60° 93.8° 51.1° - - -
5/23 2:00pm 173 9 G 16 85° 44% - - 61° 93.8° 51.1° - - -
5/23 1:50pm 168 8 G 14 84° 45% - - 60° 93.8° 51.1° - - -
5/23 1:40pm 165 7 G 15 84° 44% - - 60° 93.8° 51.1° - - -
5/23 1:30pm 152 9 G 16 84° 45% - - 61° 93.8° 51.1° - - -
5/23 1:20pm 156 8 G 14 84° 45% - - 60° 93.8° 51.1° - - -
5/23 1:10pm 153 10 G 18 84° 45% - - 60° 93.8° 51.1° - - -
5/23 1:00pm 152 11 G 20 84° 44% - - 60° 93.8° 51.1° - - -
5/23 12:50pm 157 10 G 17 85° 43% - - 60° 93.8° 51.1° - - -
5/23 12:40pm 156 10 G 18 87° 40% - - 60° 93.8° 51.1° - - -
5/23 12:30pm 156 10 G 16 89° 37% - - 59° 93.8° 51.1° - - -
5/23 12:20pm 198 7 G 13 92° 28% - - 54° 93.8° 51.1° - - -
5/23 12:10pm 208 9 G 13 92° 27% - - 53° 93.8° 51.1° - - -
5/23 12:00pm 196 11 G 17 92° 27% - - 53° 93.8° 51.1° - - -
5/23 11:50am 176 8 G 13 92° 24% - - 50° 93.8° 51.1° - - -
5/23 11:40am 159 7 G 13 92° 22% - - 48° 93.8° 51.1° - - -
5/23 11:30am 204 3 G 10 93° 19% - - 45° 93.5° 51.1° - - -
5/23 11:20am 214 1 G 3 91° 18% - - 42° 92.2° 51.1° - - -
5/23 11:10am 211 2 G 5 90° 17% - - 40° 91.6° 51.1° - - -
5/23 11:00am 268 3 G 6 89° 18% - - 40° 89.9° 51.1° - - -
5/23 10:50am 240 2 G 4 88° 19% - - 40° 89.1° 51.1° - - -
5/23 10:40am 258 3 G 4 87° 22% - - 43° 88.6° 51.1° - - -
5/23 10:30am 284 2 G 5 86° 24% - - 45° 86.9° 51.1° - - -
5/23 10:20am 5 1 G 4 85° 25% - - 46° 86.4° 51.1° - - -
5/23 10:10am 314 2 G 4 84° 26% - - 46° 84.7° 51.1° - - -
5/23 10:00am 279 2 G 4 83° 29% - - 47° 84° 51.1° - - -
5/23 9:50am 217 1 G 4 82° 31% - - 49° 83.4° 51.1° - - -
5/23 9:40am 85 1 G 3 80° 33% - - 49° 81.7° 51.1° - - -
5/23 9:30am 165 2 G 4 78° 34% - - 48° 79.8° 51.1° - - -
5/23 9:20am 212 1 G 4 76° 38% - - 49° 77.9° 51.1° - - -
5/23 9:10am 302 1 G 2 74° 41% - - 49° 76.1° 51.1° - - -
5/23 9:00am 234 2 G 3 73° 45% - - 50° 73.8° 51.1° - - -
5/23 8:50am 220 2 G 4 71° 49% - - 51° 72.1° 51.1° - - -
5/23 8:40am 231 1 G 3 69° 54% - - 52° 70.6° 51.1° - - -
5/23 8:30am 219 1 G 3 68° 57% - - 52° 69.1° 51.1° - - -
5/23 8:20am 253 1 G 2 66° 62% - - 53° 67.6° 51.1° - - -
5/23 8:10am 346 1 G 2 65° 65% - - 53° 66.3° 51.1° - - -
5/23 8:00am 29 1 G 3 64° 69% - - 53° 65.3° 51.1° - - -
5/23 7:50am 237 1 G 2 62° 76% - - 54° 62.8° 51.1° - - -
5/23 7:40am 297 1 G 2 61° 77% - - 54° 61.9° 51.1° - - -
5/23 7:30am 356 0 G 1 61° 76% - - 54° 61.9° 51.1° - - -
5/23 7:20am 55 1 G 2 58° 82% - - 53° 60.8° 51.1° - - -
5/23 7:10am 24 2 G 3 55° 88% - - 52° 60.8° 51.1° - - -
5/23 7:00am 69 2 G 3 53° 92% - - 51° 60.8° 51.1° - - -
5/23 6:50am 212 0 G 1 52° 92% - - 50° 60.8° 51.1° - - -
5/23 6:40am 206 2 G 3 52° 91% - - 50° 60.8° 51.1° - - -
5/23 6:30am 76 1 G 2 52° 92% - - 50° 60.8° 51.1° - - -
5/23 6:20am 38 1 G 2 52° 92% - - 50° 60.8° 51.1° - - -
5/23 6:10am 32 1 G 2 52° 91% - - 50° 60.8° 51.1° - - -
5/23 6:00am 43 1 G 2 53° 92% - - 50° 60.8° 51.1° - - -